Time;durP1;ratioP1;P1;durP2;ratioP2;P2;SDS_P1;SDS_P2;PMS_P1;PMS_P2;Temp;Humidity;BMP_temperature;BMP_pressure;BME280_temperature;BME280_humidity;BME280_pressure;Samples;Min_cycle;Max_cycle;Signal;HPM_P1;HPM_P2
2023/02/01 10:13:08;;;;;;;16.70;12.70;;;7.80;99.90;;;;;;5127660;27;20544;-75
2023/02/01 10:15:45;;;;;;;12.93;11.97;;;8.80;99.90;;;;;;5063964;28;20600;-77
2023/02/01 10:18:30;;;;;;;12.90;11.80;;;8.90;99.90;;;;;;5115049;28;20474;-75
2023/02/01 10:21:03;;;;;;;12.30;11.23;;;8.70;99.90;;;;;;5125334;28;20450;-75
2023/02/01 10:23:51;;;;;;;14.00;10.80;;;8.70;99.90;;;;;;5125555;28;20447;-75
2023/02/01 10:26:20;;;;;;;12.73;11.50;;;8.80;99.90;;;;;;5125746;28;20444;-75
2023/02/01 10:28:51;;;;;;;12.97;11.73;;;9.00;99.90;;;;;;5125066;28;20464;-75
2023/02/01 10:31:19;;;;;;;12.13;11.07;;;9.20;99.90;;;;;;5125399;28;20491;-75
2023/02/01 10:33:49;;;;;;;10.37;9.50;;;9.20;99.90;;;;;;5125441;28;20456;-75
2023/02/01 10:36:20;;;;;;;10.43;9.90;;;9.20;99.90;;;;;;5125422;28;20512;-75
2023/02/01 10:38:47;;;;;;;10.90;10.00;;;9.20;99.90;;;;;;5125610;28;20444;-75
2023/02/01 10:41:17;;;;;;;15.40;11.73;;;9.10;99.90;;;;;;5125541;28;20451;-76
2023/02/01 10:43:47;;;;;;;13.00;10.50;;;9.00;99.90;;;;;;5125322;28;20439;-76
2023/02/01 10:46:16;;;;;;;11.47;10.60;;;9.00;99.90;;;;;;5124847;28;20907;-75
2023/02/01 10:48:43;;;;;;;11.53;9.80;;;8.80;99.90;;;;;;5124870;28;20949;-76
2023/02/01 10:51:17;;;;;;;12.13;11.20;;;8.90;99.90;;;;;;5125237;28;20483;-75
2023/02/01 10:53:49;;;;;;;13.60;11.10;;;9.00;99.90;;;;;;5125260;28;20448;-75
2023/02/01 10:56:23;;;;;;;15.80;11.70;;;9.10;99.90;;;;;;5125067;28;20787;-75
2023/02/01 10:58:51;;;;;;;12.63;11.33;;;9.20;99.90;;;;;;5125334;28;20542;-76
2023/02/01 11:01:22;;;;;;;11.90;10.70;;;9.30;99.90;;;;;;5125602;28;20504;-76
2023/02/01 11:03:55;;;;;;;11.07;10.23;;;9.20;99.90;;;;;;5125344;28;20455;-75
2023/02/01 11:06:29;;;;;;;12.27;11.10;;;9.30;99.90;;;;;;5124792;28;20510;-75
2023/02/01 11:08:57;;;;;;;12.30;11.40;;;9.30;99.90;;;;;;5124861;28;20923;-74
2023/02/01 11:11:25;;;;;;;10.97;9.97;;;9.20;99.90;;;;;;5121743;28;20553;-75
2023/02/01 11:13:55;;;;;;;11.90;10.77;;;9.20;99.90;;;;;;5111230;28;20454;-76
2023/02/01 11:16:30;;;;;;;12.77;11.57;;;9.30;99.90;;;;;;5111477;28;20448;-74
2023/02/01 11:18:59;;;;;;;10.03;9.23;;;9.20;99.90;;;;;;5110759;28;20458;-74
2023/02/01 11:21:26;;;;;;;14.50;11.30;;;9.10;99.90;;;;;;5110955;28;20471;-75
2023/02/01 11:23:53;;;;;;;12.30;10.47;;;9.00;99.90;;;;;;5111050;28;20918;-74
2023/02/01 11:26:24;;;;;;;11.60;10.70;;;9.20;99.90;;;;;;5111409;28;20543;-74
2023/02/01 11:28:54;;;;;;;10.80;9.80;;;9.30;99.90;;;;;;5111262;28;20541;-75
2023/02/01 11:31:23;;;;;;;11.63;10.57;;;9.20;99.90;;;;;;5111082;28;20492;-74
2023/02/01 11:33:53;;;;;;;13.50;9.73;;;9.10;99.90;;;;;;5111298;28;20456;-75
2023/02/01 11:36:26;;;;;;;11.80;10.33;;;8.90;99.90;;;;;;5111122;28;20445;-75
2023/02/01 11:39:07;;;;;;;12.37;11.30;;;8.80;99.90;;;;;;5111198;28;20534;-75
2023/02/01 11:41:35;;;;;;;13.63;12.30;;;8.90;99.90;;;;;;5111347;28;20445;-76
2023/02/01 11:44:16;;;;;;;12.40;11.00;;;9.00;99.90;;;;;;5110957;28;20478;-76
2023/02/01 11:46:44;;;;;;;11.60;10.73;;;9.00;99.90;;;;;;5110565;28;20864;-75
2023/02/01 11:49:23;;;;;;;11.70;10.80;;;9.20;99.90;;;;;;5110784;28;20446;-75
2023/02/01 11:52:05;;;;;;;11.63;10.57;;;9.30;99.90;;;;;;5111177;28;20481;-75
2023/02/01 11:54:49;;;;;;;13.53;10.40;;;9.30;99.90;;;;;;5111280;28;20440;-75
2023/02/01 11:57:34;;;;;;;12.83;11.00;;;9.40;99.90;;;;;;5111005;28;20448;-75
2023/02/01 12:00:14;;;;;;;10.70;9.73;;;9.30;99.90;;;;;;5111029;28;20452;-76
2023/02/01 12:02:57;;;;;;;11.27;10.20;;;9.40;99.90;;;;;;5113233;28;20469;-76
2023/02/01 12:05:36;;;;;;;11.00;10.10;;;9.50;99.90;;;;;;5110631;28;20456;-75
2023/02/01 12:08:18;;;;;;;13.27;12.47;;;9.80;99.90;;;;;;5110304;28;20542;-75
2023/02/01 12:10:56;;;;;;;10.90;10.30;;;10.10;98.30;;;;;;5109943;28;20490;-75
2023/02/01 12:13:35;;;;;;;11.03;9.93;;;9.90;98.30;;;;;;5110059;28;20455;-76
2023/02/01 12:16:16;;;;;;;17.97;10.07;;;9.80;98.70;;;;;;5109887;28;20450;-75
2023/02/01 12:19:04;;;;;;;11.20;10.20;;;9.80;99.10;;;;;;5109648;28;20448;-76
2023/02/01 12:21:50;;;;;;;11.67;10.20;;;9.70;99.20;;;;;;5110071;28;20454;-76
2023/02/01 12:24:34;;;;;;;10.80;10.00;;;9.40;98.80;;;;;;5108861;28;20456;-76
2023/02/01 12:27:15;;;;;;;12.40;9.83;;;9.40;99.60;;;;;;5110051;28;20452;-76
2023/02/01 12:30:11;;;;;;;13.30;11.20;;;9.30;99.40;;;;;;5109701;28;20723;-76
2023/02/01 12:32:51;;;;;;;10.83;9.80;;;9.10;99.40;;;;;;5109918;28;20461;-76
2023/02/01 12:35:37;;;;;;;10.60;9.70;;;9.10;99.60;;;;;;5109397;28;20449;-76
2023/02/01 12:38:18;;;;;;;10.60;10.00;;;9.00;99.90;;;;;;5109598;28;20974;-75
2023/02/01 12:40:58;;;;;;;11.13;10.50;;;9.00;99.90;;;;;;5109032;28;20447;-75
2023/02/01 12:43:37;;;;;;;9.33;8.73;;;9.00;99.90;;;;;;5108946;28;20448;-74
2023/02/01 12:46:08;;;;;;;11.77;10.60;;;9.00;99.90;;;;;;5109352;28;20462;-74
2023/02/01 12:48:38;;;;;;;10.63;9.93;;;8.90;99.90;;;;;;5109157;28;20448;-76
2023/02/01 12:51:10;;;;;;;15.17;12.17;;;8.80;99.90;;;;;;5108984;28;20533;-74
2023/02/01 12:53:46;;;;;;;11.20;10.10;;;8.80;99.90;;;;;;5108895;28;20449;-75
2023/02/01 12:56:19;;;;;;;12.23;11.07;;;8.80;99.90;;;;;;5108739;28;20448;-75
2023/02/01 12:58:49;;;;;;;11.60;10.33;;;8.60;99.90;;;;;;5108471;28;20463;-75
2023/02/01 13:01:21;;;;;;;12.57;11.33;;;8.60;99.90;;;;;;5108894;28;20554;-75
2023/02/01 13:03:56;;;;;;;11.13;10.00;;;8.60;99.90;;;;;;5108522;28;20453;-75
2023/02/01 13:06:28;;;;;;;11.40;10.60;;;8.50;99.90;;;;;;5108705;28;20481;-75
2023/02/01 13:09:01;;;;;;;11.10;10.30;;;8.40;99.90;;;;;;5108538;28;20463;-76
2023/02/01 13:11:30;;;;;;;10.37;9.57;;;8.20;99.90;;;;;;5108548;28;20500;-75
2023/02/01 13:14:04;;;;;;;11.80;11.00;;;8.10;99.90;;;;;;5108686;28;20463;-75
2023/02/01 13:16:34;;;;;;;10.13;9.20;;;8.00;99.90;;;;;;5108262;28;20463;-75
2023/02/01 13:19:09;;;;;;;10.87;10.10;;;8.10;99.90;;;;;;5108464;28;20455;-75
2023/02/01 13:21:42;;;;;;;11.30;10.30;;;8.20;99.90;;;;;;5108764;28;20449;-76
2023/02/01 13:24:28;;;;;;;15.63;11.97;;;8.30;99.90;;;;;;5108494;28;20934;-75
2023/02/01 13:26:55;;;;;;;11.00;9.77;;;8.40;99.90;;;;;;5108725;28;20473;-75
2023/02/01 13:29:24;;;;;;;10.60;9.80;;;8.70;99.90;;;;;;5108489;28;20484;-76
2023/02/01 13:32:17;;;;;;;15.20;10.17;;;8.90;99.90;;;;;;5108551;28;20849;-77
2023/02/01 13:35:14;;;;;;;11.20;10.40;;;9.00;99.90;;;;;;5104545;28;20572;-76
2023/02/01 13:38:09;;;;;;;12.17;11.03;;;9.00;99.90;;;;;;5097042;28;20788;-76
2023/02/01 13:40:42;;;;;;;11.03;9.70;;;8.90;99.90;;;;;;5088404;28;20532;-76
2023/02/01 13:43:14;;;;;;;11.23;10.27;;;8.90;99.90;;;;;;5088118;28;20867;-76
2023/02/01 13:45:47;;;;;;;9.97;9.23;;;8.90;99.90;;;;;;5087889;28;20482;-76
2023/02/01 13:48:22;;;;;;;10.80;10.10;;;8.90;99.90;;;;;;5087844;28;20449;-77
2023/02/01 13:50:54;;;;;;;12.40;11.17;;;8.80;99.90;;;;;;5088140;28;20963;-76
2023/02/01 13:53:27;;;;;;;9.77;9.30;;;8.70;99.90;;;;;;5088082;28;20453;-74
2023/02/01 13:55:59;;;;;;;13.07;10.80;;;8.60;99.90;;;;;;5087850;28;20544;-75
2023/02/01 13:58:32;;;;;;;13.40;12.33;;;8.50;99.90;;;;;;5087629;28;20456;-75
2023/02/01 14:01:33;;;;;;;10.20;9.50;;;8.40;99.90;;;;;;5087534;28;20965;-75
2023/02/01 14:04:02;;;;;;;10.80;10.10;;;8.20;99.90;;;;;;5087406;28;20484;-75
2023/02/01 14:06:45;;;;;;;11.60;10.17;;;8.00;99.90;;;;;;5087466;28;20480;-75
2023/02/01 14:09:33;;;;;;;10.13;9.50;;;8.00;99.90;;;;;;5088046;28;20445;-75
2023/02/01 14:12:38;;;;;;;10.27;9.40;;;8.00;99.90;;;;;;5087414;28;20538;-75
2023/02/01 14:15:25;;;;;;;11.50;10.40;;;8.00;99.90;;;;;;5087784;28;20806;-76
2023/02/01 14:17:53;;;;;;;10.20;9.50;;;8.20;99.90;;;;;;5087839;28;20455;-75
2023/02/01 14:20:52;;;;;;;11.90;10.90;;;8.40;99.90;;;;;;5088163;28;20449;-75
2023/02/01 14:23:25;;;;;;;12.50;10.10;;;8.40;99.90;;;;;;5088385;28;20445;-75
2023/02/01 14:26:19;;;;;;;15.10;9.93;;;8.40;99.90;;;;;;5088316;28;20437;-75
2023/02/01 14:29:03;;;;;;;11.20;10.27;;;8.50;99.90;;;;;;5084103;28;20474;-75
2023/02/01 14:31:41;;;;;;;11.73;10.60;;;8.60;99.90;;;;;;5087144;28;20495;-76
2023/02/01 14:34:21;;;;;;;10.97;10.20;;;8.60;99.90;;;;;;5087429;28;20474;-75
2023/02/01 14:36:51;;;;;;;10.77;9.83;;;8.40;99.90;;;;;;5087251;28;20456;-76
2023/02/01 14:39:33;;;;;;;11.50;10.37;;;8.50;99.90;;;;;;5087315;28;21200;-74
2023/02/01 14:42:05;;;;;;;11.83;10.73;;;8.60;99.90;;;;;;5087499;28;20449;-75
2023/02/01 14:44:37;;;;;;;10.10;9.50;;;8.50;99.90;;;;;;5087386;28;20455;-74
2023/02/01 14:47:31;;;;;;;11.37;10.37;;;8.50;99.90;;;;;;5088337;28;20482;-75
2023/02/01 14:50:11;;;;;;;9.90;9.10;;;8.50;99.90;;;;;;5091341;28;20456;-75
2023/02/01 14:52:42;;;;;;;11.83;10.23;;;8.30;99.90;;;;;;5091414;28;20486;-76
2023/02/01 14:55:14;;;;;;;10.53;9.83;;;8.30;99.90;;;;;;5091154;28;20817;-75
2023/02/01 14:57:43;;;;;;;11.57;10.80;;;8.30;99.90;;;;;;5091420;28;20453;-76
2023/02/01 15:00:21;;;;;;;14.43;10.90;;;8.30;99.90;;;;;;5091010;28;20796;-75
2023/02/01 15:02:50;;;;;;;20.00;11.07;;;8.40;99.90;;;;;;5090908;28;20930;-76
2023/02/01 15:05:33;;;;;;;10.23;9.53;;;8.30;99.90;;;;;;5090970;28;20447;-75
2023/02/01 15:08:06;;;;;;;11.63;10.43;;;8.30;99.90;;;;;;5091183;28;20457;-74
2023/02/01 15:10:41;;;;;;;11.17;10.30;;;8.30;99.90;;;;;;5091240;28;20488;-76
2023/02/01 15:13:20;;;;;;;12.33;11.17;;;8.20;99.90;;;;;;5090627;28;20551;-75
2023/02/01 15:16:01;;;;;;;9.87;9.00;;;8.20;99.90;;;;;;5091092;28;20456;-74
2023/02/01 15:18:28;;;;;;;9.83;9.13;;;8.10;99.90;;;;;;5090784;28;20472;-74
2023/02/01 15:20:58;;;;;;;11.80;9.80;;;8.10;99.90;;;;;;5087516;28;20474;-75
2023/02/01 15:23:24;;;;;;;11.33;10.53;;;8.00;99.90;;;;;;5098169;28;20928;-75
2023/02/01 15:25:51;;;;;;;10.63;9.80;;;8.10;99.90;;;;;;5090467;28;20457;-74
2023/02/01 15:28:20;;;;;;;10.00;9.30;;;8.10;99.90;;;;;;5088822;28;20447;-75
2023/02/01 15:30:55;;;;;;;10.73;9.73;;;8.10;99.90;;;;;;5088504;28;20464;-76
2023/02/01 15:33:22;;;;;;;12.93;11.80;;;8.20;99.90;;;;;;5088048;28;20488;-74
2023/02/01 15:35:50;;;;;;;11.43;10.53;;;8.10;99.90;;;;;;5091087;28;20476;-75
2023/02/01 15:38:35;;;;;;;10.60;9.60;;;8.00;99.90;;;;;;5090587;28;20463;-75
2023/02/01 15:41:06;;;;;;;10.10;9.40;;;8.00;99.90;;;;;;5090392;28;20461;-74
2023/02/01 15:43:37;;;;;;;11.40;10.50;;;8.00;99.90;;;;;;5090468;28;20942;-75
2023/02/01 15:46:08;;;;;;;9.80;9.30;;;8.00;99.90;;;;;;5090391;28;20456;-75
2023/02/01 15:48:39;;;;;;;10.27;9.67;;;8.00;99.90;;;;;;5090490;28;20458;-75
2023/02/01 15:51:12;;;;;;;18.60;10.60;;;8.10;99.90;;;;;;5090306;28;20772;-75
2023/02/01 15:53:38;;;;;;;10.03;9.00;;;8.10;99.90;;;;;;5090227;28;20494;-74
2023/02/01 15:56:06;;;;;;;12.00;11.20;;;8.30;99.90;;;;;;5090537;28;20914;-75
2023/02/01 15:58:34;;;;;;;11.40;10.10;;;8.20;99.90;;;;;;5090139;28;20455;-76
2023/02/01 16:01:04;;;;;;;11.37;10.30;;;8.10;99.90;;;;;;5089733;28;20450;-76
2023/02/01 16:03:36;;;;;;;10.70;9.80;;;8.20;99.90;;;;;;5090069;28;20453;-76
2023/02/01 16:06:05;;;;;;;12.90;11.00;;;8.10;99.90;;;;;;5089427;28;20526;-75
2023/02/01 16:08:34;;;;;;;11.20;10.13;;;8.10;99.90;;;;;;5089937;28;20464;-76
2023/02/01 16:11:15;;;;;;;10.90;8.80;;;8.10;99.90;;;;;;5089620;28;20489;-76
2023/02/01 16:13:43;;;;;;;10.33;9.30;;;8.00;99.90;;;;;;5089638;28;20628;-76
2023/02/01 16:16:13;;;;;;;10.47;9.77;;;8.10;99.90;;;;;;5089553;28;20446;-76
2023/02/01 16:18:40;;;;;;;12.03;10.83;;;8.00;99.90;;;;;;5089849;28;20465;-76
2023/02/01 16:21:08;;;;;;;11.20;9.27;;;8.00;99.90;;;;;;5089725;28;20510;-76
2023/02/01 16:23:35;;;;;;;12.00;9.20;;;8.10;99.90;;;;;;5089744;28;20806;-76
2023/02/01 16:26:01;;;;;;;11.23;8.93;;;8.10;99.90;;;;;;5089748;28;20452;-76
2023/02/01 16:28:28;;;;;;;10.20;9.40;;;8.10;99.90;;;;;;5089213;28;20879;-76
2023/02/01 16:30:56;;;;;;;10.30;9.13;;;8.10;99.90;;;;;;5089336;28;20828;-76
2023/02/01 16:33:24;;;;;;;10.80;9.23;;;8.00;99.90;;;;;;5089800;28;20514;-76
2023/02/01 16:35:51;;;;;;;11.57;10.70;;;8.10;99.90;;;;;;5089337;28;21102;-76
2023/02/01 16:38:22;;;;;;;11.37;10.20;;;8.00;99.90;;;;;;5090180;28;20961;-75
2023/02/01 16:40:50;;;;;;;11.80;10.03;;;8.00;99.90;;;;;;5090000;28;20477;-76
2023/02/01 16:43:18;;;;;;;9.50;8.90;;;8.00;99.90;;;;;;5089623;28;20451;-76
2023/02/01 16:45:48;;;;;;;11.23;9.83;;;8.00;99.90;;;;;;5089700;28;20540;-76
2023/02/01 16:48:21;;;;;;;10.47;9.77;;;7.90;99.90;;;;;;5089660;28;20485;-76
2023/02/01 16:50:50;;;;;;;11.50;9.80;;;8.00;99.90;;;;;;5089772;28;20460;-76
2023/02/01 16:53:19;;;;;;;10.10;9.43;;;8.00;99.90;;;;;;5089534;28;20483;-76
2023/02/01 16:55:47;;;;;;;10.80;10.00;;;8.00;99.90;;;;;;5089476;28;20449;-76
2023/02/01 16:58:14;;;;;;;11.00;10.10;;;7.90;99.90;;;;;;5089441;28;20479;-76
2023/02/01 17:00:42;;;;;;;10.83;9.80;;;7.90;99.90;;;;;;5089367;28;20450;-76
2023/02/01 17:03:10;;;;;;;9.20;8.37;;;7.80;99.90;;;;;;5090010;28;20883;-77
2023/02/01 17:05:38;;;;;;;10.77;10.07;;;7.80;99.90;;;;;;5089142;28;20982;-76
2023/02/01 17:08:07;;;;;;;10.47;9.73;;;7.70;99.90;;;;;;5089474;28;20810;-76
2023/02/01 17:10:34;;;;;;;9.13;8.63;;;7.60;99.90;;;;;;5088648;28;20487;-76
2023/02/01 17:13:01;;;;;;;10.40;9.00;;;7.60;99.90;;;;;;5089414;28;20847;-76
2023/02/01 17:15:33;;;;;;;11.13;10.23;;;7.60;99.90;;;;;;5089048;28;20840;-76
2023/02/01 17:18:01;;;;;;;11.13;10.23;;;7.60;99.90;;;;;;5089331;28;20460;-76
2023/02/01 17:20:32;;;;;;;11.33;10.23;;;7.60;99.90;;;;;;5089015;28;20450;-74
2023/02/01 17:23:00;;;;;;;10.07;9.23;;;7.60;99.90;;;;;;5089178;28;20496;-76
2023/02/01 17:25:30;;;;;;;10.63;9.93;;;7.60;99.90;;;;;;5088874;28;20441;-76
2023/02/01 17:27:56;;;;;;;11.50;9.30;;;7.60;99.90;;;;;;5089273;28;20852;-76
2023/02/01 17:30:23;;;;;;;9.20;8.60;;;7.70;99.90;;;;;;5088903;28;20453;-76
2023/02/01 17:32:50;;;;;;;11.77;10.87;;;7.70;99.90;;;;;;5089733;28;20533;-76
2023/02/01 17:35:20;;;;;;;9.93;9.10;;;7.70;99.90;;;;;;5089064;28;20514;-76
2023/02/01 17:37:48;;;;;;;11.07;10.00;;;7.70;99.90;;;;;;5089044;28;20983;-76
2023/02/01 17:40:16;;;;;;;10.70;9.43;;;7.70;99.90;;;;;;5088868;28;20456;-77
2023/02/01 17:42:43;;;;;;;9.50;8.70;;;7.70;99.90;;;;;;5088866;28;20450;-78
2023/02/01 17:45:35;;;;;;;9.23;8.60;;;7.70;99.90;;;;;;5088742;28;20441;-76
2023/02/01 17:48:02;;;;;;;11.13;9.03;;;7.70;99.90;;;;;;5088836;28;20445;-76
2023/02/01 17:50:31;;;;;;;12.13;8.53;;;7.70;99.90;;;;;;5088518;28;20617;-77
2023/02/01 17:53:02;;;;;;;12.87;11.57;;;7.70;99.90;;;;;;5088563;28;20489;-77
2023/02/01 17:55:30;;;;;;;12.00;10.90;;;7.70;99.90;;;;;;5088438;28;20473;-77
2023/02/01 17:57:56;;;;;;;10.70;9.60;;;7.60;99.90;;;;;;5088963;28;20698;-76
